createdAt,value
2019-04-23T00:01:38.664Z,100611.01
2019-04-23T00:04:05.836Z,100606.92
2019-04-23T00:06:43.897Z,100594.56
2019-04-23T00:09:15.516Z,100597.24
2019-04-23T00:11:40.998Z,100595.87
2019-04-23T00:14:11.930Z,100594.09
2019-04-23T00:16:38.213Z,100590.13
2019-04-23T00:19:11.694Z,100581.08
2019-04-23T00:21:52.168Z,100578.81
2019-04-23T00:25:04.579Z,100573.48
2019-04-23T00:27:23.933Z,100575.91
2019-04-23T00:29:47.870Z,100571.89
2019-04-23T00:32:18.311Z,100569.27
2019-04-23T00:34:49.694Z,100571.45
2019-04-23T00:37:24.342Z,100566.58
2019-04-23T00:39:46.838Z,100570.38
2019-04-23T00:42:20.247Z,100570.83
2019-04-23T00:47:20.956Z,100561.44
2019-04-23T00:49:51.274Z,100551.80
2019-04-23T00:52:20.451Z,100553.48
2019-04-23T00:54:57.497Z,100546.84
2019-04-23T00:57:24.268Z,100545.72
2019-04-23T01:02:26.367Z,100549.46
2019-04-23T01:04:59.691Z,100535.77
2019-04-23T01:07:25.726Z,100537.34
2019-04-23T01:09:59.820Z,100533.89
2019-04-23T01:12:38.402Z,100533.36
2019-04-23T01:15:07.470Z,100535.91
2019-04-23T01:17:39.799Z,100533.02
2019-04-23T01:20:08.472Z,100525.13
2019-04-23T01:22:21.091Z,100521.90
2019-04-23T01:24:53.000Z,100522.34
2019-04-23T01:30:21.790Z,100517.34
2019-04-23T01:32:53.612Z,100510.44
2019-04-23T01:35:28.773Z,100514.70
2019-04-23T01:37:55.771Z,100506.20
2019-04-23T01:40:31.923Z,100500.64
2019-04-23T01:43:01.724Z,100504.53
2019-04-23T01:45:27.421Z,100498.00
2019-04-23T01:47:59.737Z,100501.47
2019-04-23T01:55:42.628Z,100498.94
2019-04-23T02:00:45.055Z,100496.94
2019-04-23T02:05:41.561Z,100488.69
2019-04-23T02:10:53.723Z,100481.09
2019-04-23T02:13:17.871Z,100480.93
2019-04-23T02:15:49.537Z,100476.50
2019-04-23T02:18:18.173Z,100475.64
2019-04-23T02:20:48.083Z,100477.20
2019-04-23T02:23:41.361Z,100472.41
2019-04-23T02:26:07.374Z,100457.75
2019-04-23T02:28:38.568Z,100453.54
2019-04-23T02:36:07.020Z,100460.33
2019-04-23T02:43:48.689Z,100446.52
2019-04-23T02:46:11.662Z,100446.69
2019-04-23T02:48:59.954Z,100438.81
2019-04-23T02:51:39.926Z,100442.97
2019-04-23T02:56:30.905Z,100439.83
2019-04-23T03:01:28.001Z,100424.94
2019-04-23T03:06:29.868Z,100428.50
2019-04-23T03:08:54.863Z,100429.09
2019-04-23T03:11:32.165Z,100431.62
2019-04-23T03:16:46.339Z,100424.70
2019-04-23T03:19:13.589Z,100426.64
2019-04-23T03:22:03.772Z,100425.88
2019-04-23T03:29:40.841Z,100424.64
2019-04-23T03:47:18.367Z,100407.55
2019-04-23T03:49:46.250Z,100402.64
2019-04-23T04:02:35.361Z,100406.51
2019-04-23T04:07:29.301Z,100408.81
2019-04-23T04:09:47.700Z,100408.44
2019-04-23T04:12:31.721Z,100407.64
2019-04-23T04:17:19.581Z,100408.81
2019-04-23T04:22:39.939Z,100410.16
2019-04-23T04:30:01.032Z,100414.41
2019-04-23T04:35:18.863Z,100410.37
2019-04-23T04:40:11.063Z,100414.02
2019-04-23T04:42:33.131Z,100412.30
2019-04-23T04:45:30.455Z,100407.67
2019-04-23T04:50:10.305Z,100411.41
2019-04-23T04:52:48.686Z,100408.06
2019-04-23T04:57:40.179Z,100414.20
2019-04-23T05:02:58.855Z,100416.87
2019-04-23T05:05:37.999Z,100417.42
2019-04-23T05:10:16.635Z,100416.45
2019-04-23T05:12:56.417Z,100411.13
2019-04-23T05:15:06.904Z,100420.25
2019-04-23T05:18:00.125Z,100411.38
2019-04-23T05:20:30.647Z,100410.98
2019-04-23T05:25:25.396Z,100407.06
2019-04-23T05:28:03.102Z,100407.23
2019-04-23T05:30:34.936Z,100414.92
2019-04-23T05:33:18.434Z,100411.80
2019-04-23T05:36:08.406Z,100413.69
2019-04-23T05:38:52.945Z,100411.91
2019-04-23T05:41:36.511Z,100409.41
2019-04-23T05:44:10.325Z,100404.94
2019-04-23T05:49:14.219Z,100403.23
2019-04-23T05:51:50.407Z,100405.76
2019-04-23T05:54:18.957Z,100395.66
2019-04-23T05:59:29.725Z,100395.55
2019-04-23T06:04:38.979Z,100388.12
2019-04-23T06:10:02.846Z,100385.30
2019-04-23T06:12:25.489Z,100388.17
2019-04-23T06:14:57.501Z,100381.22
2019-04-23T06:17:39.288Z,100390.02
2019-04-23T06:20:11.413Z,100385.50
2019-04-23T06:22:45.081Z,100381.36
2019-04-23T06:25:22.079Z,100382.42
2019-04-23T06:27:39.364Z,100374.82
2019-04-23T06:30:15.056Z,100377.45
2019-04-23T06:32:46.434Z,100377.36
2019-04-23T06:35:09.763Z,100377.14
2019-04-23T06:40:15.812Z,100378.56
2019-04-23T06:42:56.286Z,100366.07
2019-04-23T06:48:20.642Z,100367.22
2019-04-23T06:50:43.035Z,100369.47
2019-04-23T06:53:04.167Z,100368.38
2019-04-23T06:55:46.568Z,100365.54
2019-04-23T06:58:34.233Z,100359.17
2019-04-23T07:01:19.186Z,100358.19
2019-04-23T07:06:38.571Z,100354.39
2019-04-23T07:09:26.225Z,100355.84
2019-04-23T07:12:05.245Z,100358.42
2019-04-23T07:17:26.667Z,100348.44
2019-04-23T07:20:50.872Z,100340.94
2019-04-23T07:22:37.488Z,100340.16
2019-04-23T07:25:08.267Z,100339.16
2019-04-23T07:28:16.710Z,100324.60
2019-04-23T07:31:07.463Z,100333.59
2019-04-23T07:33:35.066Z,100319.98
2019-04-23T07:36:10.814Z,100321.44
2019-04-23T07:38:48.099Z,100327.55
2019-04-23T07:41:17.301Z,100319.11
2019-04-23T07:43:54.546Z,100312.69
2019-04-23T07:46:53.532Z,100314.23
2019-04-23T07:49:15.147Z,100303.32
2019-04-23T07:51:46.893Z,100310.58
2019-04-23T07:54:29.016Z,100302.02
2019-04-23T07:56:58.560Z,100297.00
2019-04-23T07:59:17.542Z,100301.05
2019-04-23T08:01:52.382Z,100291.24
2019-04-23T08:04:16.911Z,100296.70
2019-04-23T08:06:53.112Z,100286.81
2019-04-23T08:09:28.117Z,100294.84
2019-04-23T08:11:49.281Z,100291.06
2019-04-23T08:14:13.922Z,100284.02
2019-04-23T08:16:50.339Z,100273.73
2019-04-23T08:19:24.452Z,100272.45
2019-04-23T08:22:04.665Z,100274.22
2019-04-23T08:27:43.900Z,100278.21
2019-04-23T08:30:09.280Z,100273.91
2019-04-23T08:32:47.691Z,100269.25
2019-04-23T08:35:14.161Z,100269.13
2019-04-23T08:38:02.747Z,100265.27
2019-04-23T08:40:19.877Z,100271.28
2019-04-23T08:42:54.799Z,100260.49
2019-04-23T08:45:37.696Z,100245.06
2019-04-23T08:48:34.483Z,100243.36
2019-04-23T08:50:57.979Z,100255.68
2019-04-23T08:53:37.562Z,100247.64
2019-04-23T08:55:49.245Z,100235.22
2019-04-23T09:03:34.343Z,100234.57
2019-04-23T09:08:27.897Z,100235.84
2019-04-23T09:16:57.655Z,100222.73
2019-04-23T09:29:05.884Z,100200.21
2019-04-23T09:35:14.343Z,100206.70
2019-04-23T09:38:04.169Z,100200.89
2019-04-23T09:41:25.077Z,100191.72
2019-04-23T09:44:02.914Z,100182.14
2019-04-23T09:46:55.978Z,100187.28
2019-04-23T09:49:31.140Z,100182.31
2019-04-23T09:52:11.166Z,100171.53
2019-04-23T09:57:24.396Z,100165.19
2019-04-23T10:02:19.514Z,100154.40
2019-04-23T10:04:51.862Z,100152.30
2019-04-23T10:07:34.935Z,100140.32
2019-04-23T10:10:05.405Z,100146.83
2019-04-23T10:12:35.843Z,100144.05
2019-04-23T10:15:21.506Z,100135.14
2019-04-23T10:17:46.719Z,100128.77
2019-04-23T10:20:22.579Z,100129.33
2019-04-23T10:23:02.252Z,100124.55
2019-04-23T10:25:40.195Z,100121.47
2019-04-23T10:28:15.175Z,100106.02
2019-04-23T10:33:50.391Z,100113.59
2019-04-23T10:36:34.554Z,100101.19
2019-04-23T10:39:23.979Z,100112.84
2019-04-23T10:41:55.331Z,100090.88
2019-04-23T10:44:45.883Z,100098.43
2019-04-23T10:50:51.231Z,100089.45
2019-04-23T10:53:37.917Z,100068.16
2019-04-23T10:56:00.694Z,100074.63
2019-04-23T10:58:36.572Z,100074.55
2019-04-23T11:03:57.272Z,100072.21
2019-04-23T11:06:39.671Z,100058.50
2019-04-23T11:09:23.369Z,100064.28
2019-04-23T11:11:44.873Z,100066.17
2019-04-23T11:14:25.361Z,100061.21
2019-04-23T11:19:52.838Z,100043.64
2019-04-23T11:22:38.956Z,100038.49
2019-04-23T11:24:59.446Z,100038.97
2019-04-23T11:27:31.331Z,100037.74
2019-04-23T11:30:03.965Z,100033.95
2019-04-23T11:35:31.028Z,100039.40
2019-04-23T11:40:29.921Z,100033.91
2019-04-23T11:48:14.259Z,100031.08
2019-04-23T11:51:10.475Z,100020.16
2019-04-23T11:53:06.707Z,100016.37
2019-04-23T11:58:20.447Z,100012.48
2019-04-23T12:01:02.285Z,100015.89
2019-04-23T12:03:28.662Z,100009.80
2019-04-23T12:06:16.955Z,100012.92
2019-04-23T12:08:58.921Z,100011.17
2019-04-23T12:11:54.565Z,100014.84
2019-04-23T12:17:31.664Z,100002.41
2019-04-23T12:22:51.275Z,100010.52
2019-04-23T12:27:59.682Z,100006.19
2019-04-23T12:36:05.460Z,99990.53
2019-04-23T12:38:38.869Z,99982.16
2019-04-23T12:41:21.155Z,99985.02
2019-04-23T12:44:02.742Z,99977.58
2019-04-23T12:46:41.610Z,99974.18
2019-04-23T12:49:35.838Z,99970.77
2019-04-23T12:51:57.527Z,99968.41
2019-04-23T13:02:44.588Z,99966.73
2019-04-23T13:05:17.417Z,99970.00
2019-04-23T13:08:04.115Z,99959.55
2019-04-23T13:10:42.356Z,99957.13
2019-04-23T13:13:19.191Z,99947.14
2019-04-23T13:15:40.707Z,99945.03
2019-04-23T13:18:17.511Z,99948.71
2019-04-23T13:20:42.313Z,99968.44
2019-04-23T13:23:34.595Z,99942.75
2019-04-23T13:26:05.807Z,99929.66
2019-04-23T13:28:43.030Z,99932.63
2019-04-23T13:34:11.052Z,99927.52
2019-04-23T13:36:32.479Z,99927.16
2019-04-23T13:39:02.113Z,99918.47
2019-04-23T13:41:33.369Z,99919.08
2019-04-23T13:44:00.129Z,99913.47
2019-04-23T13:46:55.756Z,99918.25
2019-04-23T13:49:34.991Z,99915.77
2019-04-23T13:52:37.738Z,99906.03
2019-04-23T13:55:00.273Z,99910.15
2019-04-23T13:57:53.459Z,99916.55
2019-04-23T13:59:44.440Z,99904.85
2019-04-23T14:02:34.545Z,99909.56
2019-04-23T14:07:38.440Z,99900.30
2019-04-23T14:10:23.548Z,99891.34
2019-04-23T14:13:05.869Z,99899.22
2019-04-23T14:15:36.831Z,99899.09
2019-04-23T14:18:22.692Z,99895.87
2019-04-23T14:20:38.376Z,99896.69
2019-04-23T14:23:29.341Z,99896.05
2019-04-23T14:26:11.385Z,99893.56
2019-04-23T14:28:37.403Z,99890.30
2019-04-23T14:33:53.152Z,99886.13
2019-04-23T14:39:06.440Z,99884.68
2019-04-23T14:41:47.184Z,99884.09
2019-04-23T14:44:14.112Z,99887.55
2019-04-23T14:52:12.223Z,99873.80
2019-04-23T14:55:31.520Z,99866.05
2019-04-23T14:57:32.757Z,99868.72
2019-04-23T15:02:44.681Z,99866.88
2019-04-23T15:05:15.356Z,99871.84
2019-04-23T15:07:42.643Z,99862.69
2019-04-23T15:10:18.348Z,99863.41
2019-04-23T15:12:50.579Z,99856.41
2019-04-23T15:15:20.838Z,99851.45
2019-04-23T15:18:01.879Z,99851.21
2019-04-23T15:20:28.769Z,99857.87
2019-04-23T15:23:13.413Z,99847.86
2019-04-23T15:28:07.302Z,99835.41
2019-04-23T15:30:57.534Z,99843.17
2019-04-23T15:33:38.245Z,99831.08
2019-04-23T15:36:27.447Z,99842.66
2019-04-23T15:42:23.095Z,99828.80
2019-04-23T15:44:06.120Z,99828.48
2019-04-23T15:46:35.450Z,99826.86
2019-04-23T15:51:52.223Z,99822.58
2019-04-23T15:54:25.404Z,99823.56
2019-04-23T15:57:28.419Z,99822.22
2019-04-23T15:59:43.961Z,99824.36
2019-04-23T16:01:45.592Z,99830.89
2019-04-23T16:04:27.601Z,99817.50
2019-04-23T16:07:31.712Z,99814.48
2019-04-23T16:10:26.075Z,99816.91
2019-04-23T16:12:56.534Z,99822.91
2019-04-23T16:15:25.666Z,99825.52
2019-04-23T16:18:39.078Z,99822.45
2019-04-23T16:21:27.376Z,99829.00
2019-04-23T16:24:00.999Z,99824.58
2019-04-23T16:26:14.715Z,99825.34
2019-04-23T16:32:20.965Z,99825.92
2019-04-23T16:34:32.205Z,99815.86
2019-04-23T16:37:02.149Z,99822.39
2019-04-23T16:42:38.536Z,99821.83
2019-04-23T16:45:27.034Z,99814.70
2019-04-23T16:48:10.216Z,99819.76
2019-04-23T16:51:00.757Z,99813.66
2019-04-23T16:58:25.239Z,99812.39
2019-04-23T17:03:46.647Z,99814.70
2019-04-23T17:06:10.563Z,99815.38
2019-04-23T17:08:53.619Z,99818.02
2019-04-23T17:13:52.080Z,99815.55
2019-04-23T17:16:23.661Z,99813.21
2019-04-23T17:18:56.297Z,99821.68
2019-04-23T17:21:32.548Z,99815.91
2019-04-23T17:24:14.501Z,99816.16
2019-04-23T17:26:38.881Z,99816.52
2019-04-23T17:32:05.692Z,99824.84
2019-04-23T17:37:26.876Z,99815.80
2019-04-23T17:40:17.706Z,99817.03
2019-04-23T17:42:37.849Z,99821.81
2019-04-23T17:51:13.273Z,99829.75
2019-04-23T17:53:29.657Z,99823.98
2019-04-23T17:59:44.074Z,99826.75
2019-04-23T18:02:22.048Z,99830.54
2019-04-23T18:04:43.934Z,99824.36
2019-04-23T18:10:22.950Z,99822.66
2019-04-23T18:12:57.634Z,99834.61
2019-04-23T18:15:15.777Z,99827.80
2019-04-23T18:17:56.284Z,99828.84
2019-04-23T18:20:50.533Z,99828.64
2019-04-23T18:23:06.535Z,99832.23
2019-04-23T18:26:08.751Z,99832.91
2019-04-23T18:28:58.856Z,99832.20
2019-04-23T18:31:29.391Z,99833.73
2019-04-23T18:35:03.999Z,99833.91
2019-04-23T18:37:10.768Z,99836.59
2019-04-23T18:42:03.985Z,99841.87
2019-04-23T18:42:31.833Z,99835.87
2019-04-23T18:44:57.412Z,99844.36
2019-04-23T18:47:38.673Z,99842.64
2019-04-23T18:50:11.473Z,99844.00
2019-04-23T18:53:06.152Z,99845.36
2019-04-23T18:55:41.929Z,99848.75
2019-04-23T18:58:08.320Z,99845.98
2019-04-23T19:00:55.158Z,99840.85
2019-04-23T19:03:29.686Z,99841.70
2019-04-23T19:06:07.066Z,99837.76
2019-04-23T19:08:59.609Z,99845.03
2019-04-23T19:11:46.105Z,99849.28
2019-04-23T19:14:47.885Z,99850.61
2019-04-23T19:20:18.949Z,99850.88
2019-04-23T19:22:56.383Z,99849.48
2019-04-23T19:25:16.994Z,99853.72
2019-04-23T19:27:55.773Z,99847.36
2019-04-23T19:38:43.444Z,99844.36
2019-04-23T19:41:23.576Z,99840.04
2019-04-23T19:44:08.592Z,99843.75
2019-04-23T19:49:34.244Z,99850.51
2019-04-23T19:55:08.561Z,99847.06
2019-04-23T19:57:56.560Z,99848.37
2019-04-23T20:01:08.784Z,99843.24
2019-04-23T20:03:25.953Z,99840.84
2019-04-23T20:06:05.936Z,99844.73
2019-04-23T20:11:20.997Z,99839.08
2019-04-23T20:16:30.532Z,99841.70
2019-04-23T20:21:33.304Z,99840.63
2019-04-23T20:26:50.903Z,99835.66
2019-04-23T20:31:37.677Z,99833.80
2019-04-23T20:35:07.223Z,99831.98
2019-04-23T20:38:25.749Z,99833.66
2019-04-23T20:41:03.969Z,99831.60
2019-04-23T20:43:39.164Z,99831.92
2019-04-23T20:46:10.953Z,99832.23
2019-04-23T20:48:46.963Z,99830.52
2019-04-23T20:51:04.887Z,99823.03
2019-04-23T20:53:59.350Z,99824.73
2019-04-23T20:59:03.014Z,99824.63
2019-04-23T21:01:48.183Z,99822.92
2019-04-23T21:04:24.047Z,99822.23
2019-04-23T21:06:56.439Z,99822.73
2019-04-23T21:09:48.953Z,99815.05
2019-04-23T21:12:16.338Z,99825.58
2019-04-23T21:15:03.196Z,99822.31
2019-04-23T21:20:30.185Z,99817.34
2019-04-23T21:26:03.566Z,99816.06
2019-04-23T21:28:44.370Z,99813.81
2019-04-23T21:31:11.599Z,99806.98
2019-04-23T21:39:38.582Z,99811.02
2019-04-23T21:42:20.827Z,99806.16
2019-04-23T21:44:40.731Z,99806.27
2019-04-23T21:47:46.287Z,99800.64
2019-04-23T21:50:20.111Z,99799.24
2019-04-23T21:52:40.832Z,99799.90
2019-04-23T21:55:11.276Z,99797.99
2019-04-23T21:57:53.762Z,99795.05
2019-04-23T22:00:13.860Z,99798.07
2019-04-23T22:02:54.788Z,99796.86
2019-04-23T22:05:24.964Z,99797.67
2019-04-23T22:07:58.150Z,99790.69
2019-04-23T22:10:27.812Z,99794.20
2019-04-23T22:13:24.042Z,99783.65
2019-04-23T22:15:59.694Z,99785.28
2019-04-23T22:24:07.057Z,99784.63
2019-04-23T22:26:57.615Z,99783.73
2019-04-23T22:29:35.837Z,99792.17
2019-04-23T22:37:42.853Z,99784.31
2019-04-23T22:40:18.123Z,99775.97
2019-04-23T22:43:14.962Z,99780.05
2019-04-23T22:48:04.501Z,99773.47
2019-04-23T22:50:38.598Z,99778.14
2019-04-23T22:53:08.008Z,99778.08
2019-04-23T22:55:53.908Z,99778.38
2019-04-23T22:58:20.007Z,99782.09
2019-04-23T23:01:00.266Z,99779.69
2019-04-23T23:03:21.197Z,99786.38
2019-04-23T23:08:50.444Z,99779.33
2019-04-23T23:11:05.396Z,99770.98
2019-04-23T23:13:52.198Z,99775.84
2019-04-23T23:18:48.919Z,99768.42
2019-04-23T23:23:57.483Z,99775.78
2019-04-23T23:26:42.192Z,99772.36
2019-04-23T23:29:06.125Z,99773.02
2019-04-23T23:32:15.020Z,99771.59
2019-04-23T23:34:48.806Z,99771.89
2019-04-23T23:37:15.571Z,99773.14
2019-04-23T23:42:22.434Z,99778.58
2019-04-23T23:45:21.772Z,99768.53
2019-04-23T23:47:52.258Z,99767.11
2019-04-23T23:50:35.058Z,99762.95
2019-04-23T23:55:50.856Z,99760.45
2019-04-23T23:58:26.963Z,99766.80
